Aérodrome :
LOGIN :

S'inscrire | Disclaimer

   EN    FR    IT 

 










Légende :    VFR   VFR Marginal   IFR   IFR Intensif   IFR Très Intensif
Visi : 
Plafond : 
>= 8 km
>= 3000ft
5 à 8 km
1000 à 3000 ft
1500m à 5 km
500 à 1000 ft
800 à 1500m
200 à 500 ft
< 800m
< 200 ft
Symboles :   Orages  Brouillard  Fortes neiges  Fortes précipitations  Vent > 20 kt
SIGMETs :   Divers  Orages  Givrage  Turbulence  Onde Orograph.  Cendres Volcan.






- Altitude de l'aérodrome : 144 ft
- Code IATA : PGF


LFMP - Perpignan

DERNIER METAR :
  • 200900Z AUTO VRB03KT 9999 FEW094 15/08 Q1015 NOSIG

METARs EXPIRÉS :
  • 200830Z AUTO VRB03KT 9999 SCT094 SCT220 14/08 Q1015 NOSIG
  • 200800Z AUTO 03003KT 330V070 9999 FEW012 14/07 Q1015 NOSIG
  • 200730Z AUTO VRB02KT 9999 SCT011 SCT160 13/06 Q1015 NOSIG
  • 200700Z AUTO VRB01KT CAVOK 12/04 Q1015 NOSIG
  • 200630Z AUTO 22001KT 9999 FEW001 11/03 Q1015 NOSIG

TAF TAF LFMP
Valide du 20 à 09h jusqu'au 21 à 09h UTC


200800Z 2009/2109 VRB05KT 9999 SCT010
TEMPO 2012/2016 09010KT
BECMG 2015/2017 RA BKN060
TEMPO 2020/2102 RA BKN030
BECMG 2102/2105 RA SCT005 BKN010
ATIS : +33 4 68 63 75 12



MET'MAP, la Météo Aéronautique d'un coup d'oeil ! - Copyright ORBIFLY Décembre 2007 - Disclaimer

ORBIFLY MET'MAP TEAM :

Programmation & Développement : Alexandra Zaïnal
Sur une idée originale de : Baudouin d'Aumeries
Assistance à la programmation : Marc-Olivier Méhu
Soutien technique & logistique : Manuel Goepfert

Contact : metmap@orbifly.com




SOURCES & CREDITS :

   NOAA